createdAt,value
2022-08-11T00:01:07.595Z,7.50
2022-08-11T00:03:43.823Z,8.40
2022-08-11T00:06:14.613Z,7.20
2022-08-11T00:08:46.115Z,7.60
2022-08-11T00:11:17.148Z,7.57
2022-08-11T00:13:48.912Z,8.17
2022-08-11T00:16:22.794Z,8.20
2022-08-11T00:18:55.542Z,8.63
2022-08-11T00:22:03.133Z,8.37
2022-08-11T00:24:17.733Z,8.37
2022-08-11T00:26:50.252Z,8.33
2022-08-11T00:29:19.051Z,8.73
2022-08-11T00:31:51.849Z,8.60
2022-08-11T00:34:23.995Z,7.60
2022-08-11T00:36:55.054Z,9.30
2022-08-11T00:39:29.063Z,7.83
2022-08-11T00:42:19.351Z,8.43
2022-08-11T00:45:03.762Z,8.27
2022-08-11T00:47:58.405Z,7.73
2022-08-11T00:50:41.821Z,8.77
2022-08-11T00:53:32.004Z,9.93
2022-08-11T00:56:48.992Z,8.60
2022-08-11T00:59:55.959Z,9.10
2022-08-11T01:02:48.076Z,10.30
2022-08-11T01:05:38.805Z,9.90
2022-08-11T01:08:43.735Z,9.83
2022-08-11T01:11:55.939Z,10.47
2022-08-11T01:15:25.109Z,10.57
2022-08-11T01:18:44.806Z,10.37
2022-08-11T01:22:08.414Z,10.93
2022-08-11T01:25:27.671Z,10.33
2022-08-11T01:28:54.008Z,10.77
2022-08-11T01:32:17.722Z,12.03
2022-08-11T01:35:37.415Z,11.90
2022-08-11T01:38:59.848Z,12.37
2022-08-11T01:42:23.710Z,11.63
2022-08-11T01:45:29.003Z,12.40
2022-08-11T01:48:05.194Z,13.17
2022-08-11T01:50:49.591Z,13.13
2022-08-11T01:53:31.925Z,13.93
2022-08-11T01:56:18.123Z,13.50
2022-08-11T01:58:51.309Z,13.57
2022-08-11T02:01:40.836Z,13.57
2022-08-11T02:04:20.675Z,13.60
2022-08-11T02:06:58.420Z,13.70
2022-08-11T02:09:49.744Z,12.73
2022-08-11T02:12:39.046Z,12.77
2022-08-11T02:15:16.754Z,15.73
2022-08-11T02:17:58.362Z,14.77
2022-08-11T02:20:49.295Z,13.73
2022-08-11T02:24:05.912Z,15.17
2022-08-11T02:26:40.574Z,15.50
2022-08-11T02:29:19.653Z,16.10
2022-08-11T02:32:28.825Z,15.87
2022-08-11T02:35:11.326Z,15.57
2022-08-11T02:37:51.778Z,13.90
2022-08-11T02:40:32.378Z,15.83
2022-08-11T02:43:18.991Z,16.60
2022-08-11T02:45:57.941Z,17.10
2022-08-11T02:49:07.250Z,14.70
2022-08-11T02:51:46.107Z,14.93
2022-08-11T02:54:26.596Z,14.23
2022-08-11T02:57:03.753Z,14.93
2022-08-11T02:59:51.717Z,14.57
2022-08-11T03:02:34.988Z,16.30
2022-08-11T03:05:33.347Z,17.90
2022-08-11T03:08:20.618Z,16.67
2022-08-11T03:11:26.752Z,15.37
2022-08-11T03:14:28.965Z,18.00
2022-08-11T03:17:05.952Z,16.17
2022-08-11T03:19:56.687Z,14.57
2022-08-11T03:22:31.558Z,16.23
2022-08-11T03:25:04.551Z,16.87
2022-08-11T03:27:51.082Z,17.53
2022-08-11T03:30:27.099Z,17.17
2022-08-11T03:33:40.682Z,18.10
2022-08-11T03:36:23.122Z,16.10
2022-08-11T03:39:10.121Z,16.27
2022-08-11T03:42:02.139Z,16.10
2022-08-11T03:45:01.093Z,15.20
2022-08-11T03:47:55.543Z,14.53
2022-08-11T03:50:54.454Z,14.70
2022-08-11T03:53:46.102Z,17.37
2022-08-11T03:56:58.852Z,17.63
2022-08-11T04:00:22.443Z,17.03
2022-08-11T04:03:31.455Z,16.50
2022-08-11T04:06:40.367Z,14.80
2022-08-11T04:09:59.747Z,17.90
2022-08-11T04:13:08.664Z,17.17
2022-08-11T04:16:11.610Z,20.67
2022-08-11T04:19:44.191Z,16.70
2022-08-11T04:23:03.488Z,17.70
2022-08-11T04:25:58.224Z,18.97
2022-08-11T04:29:15.052Z,17.43
2022-08-11T04:32:02.829Z,16.30
2022-08-11T04:35:17.615Z,17.17
2022-08-11T04:38:32.524Z,17.33
2022-08-11T04:42:04.558Z,16.33
2022-08-11T04:45:37.478Z,17.37
2022-08-11T04:48:44.882Z,19.53
2022-08-11T04:52:02.269Z,19.07
2022-08-11T04:55:09.613Z,16.73
2022-08-11T04:58:05.783Z,17.53
2022-08-11T05:01:11.131Z,17.70
2022-08-11T05:04:33.372Z,19.63
2022-08-11T05:07:34.415Z,18.63
2022-08-11T05:10:20.919Z,19.13
2022-08-11T05:12:54.644Z,20.17
2022-08-11T05:15:55.137Z,19.80
2022-08-11T05:18:44.334Z,21.00
2022-08-11T05:21:44.502Z,20.73
2022-08-11T05:24:41.791Z,21.20
2022-08-11T05:27:33.264Z,21.90
2022-08-11T05:30:24.794Z,22.83
2022-08-11T05:33:18.392Z,24.23
2022-08-11T05:36:01.567Z,21.37
2022-08-11T05:38:55.251Z,24.63
2022-08-11T05:41:44.667Z,22.43
2022-08-11T05:44:38.016Z,22.77
2022-08-11T05:47:24.927Z,22.20
2022-08-11T05:50:13.579Z,21.40
2022-08-11T05:53:05.215Z,29.07
2022-08-11T05:56:03.117Z,21.27
2022-08-11T05:58:41.757Z,21.43
2022-08-11T06:01:13.528Z,24.77
2022-08-11T06:04:03.591Z,38.03
2022-08-11T06:06:32.610Z,45.43
2022-08-11T06:09:01.699Z,41.27
2022-08-11T06:11:43.720Z,48.33
2022-08-11T06:14:15.388Z,51.97
2022-08-11T06:16:50.237Z,52.53
2022-08-11T06:19:23.059Z,42.27
2022-08-11T06:21:53.245Z,39.03
2022-08-11T06:24:21.790Z,37.97
2022-08-11T06:29:55.123Z,37.67
2022-08-11T06:32:29.900Z,33.47
2022-08-11T06:35:09.870Z,38.73
2022-08-11T06:37:47.260Z,45.27
2022-08-11T06:40:31.170Z,51.57
2022-08-11T06:43:07.404Z,53.13
2022-08-11T06:45:42.244Z,46.07
2022-08-11T06:48:18.782Z,41.40
2022-08-11T06:51:09.346Z,29.10
2022-08-11T06:54:03.815Z,29.87
2022-08-11T06:57:12.521Z,29.30
2022-08-11T07:00:02.158Z,38.70
2022-08-11T07:02:35.024Z,29.63
2022-08-11T07:05:11.369Z,20.27
2022-08-11T07:08:49.576Z,18.10
2022-08-11T07:12:07.187Z,16.43
2022-08-11T07:15:00.261Z,14.33
2022-08-11T07:17:31.787Z,11.37
2022-08-11T07:20:20.270Z,12.40
2022-08-11T07:23:13.924Z,12.60
2022-08-11T07:26:02.950Z,16.20
2022-08-11T07:28:52.423Z,12.63
2022-08-11T07:31:29.870Z,16.07
2022-08-11T07:34:20.550Z,8.67
2022-08-11T07:36:55.039Z,9.87
2022-08-11T07:39:27.875Z,11.37
2022-08-11T07:41:59.872Z,10.10
2022-08-11T07:44:34.818Z,10.27
2022-08-11T07:47:22.165Z,11.90
2022-08-11T07:50:11.059Z,12.90
2022-08-11T07:52:40.747Z,18.75
2022-08-11T07:55:17.875Z,12.60
2022-08-11T07:58:15.535Z,14.40
2022-08-11T08:01:10.492Z,17.70
2022-08-11T08:04:02.831Z,21.02
2022-08-11T08:06:51.692Z,11.50
2022-08-11T08:09:39.795Z,14.88
2022-08-11T08:12:27.974Z,10.85
2022-08-11T08:15:15.287Z,10.55
2022-08-11T08:18:09.997Z,15.45
2022-08-11T08:20:49.870Z,14.15
2022-08-11T08:23:32.840Z,8.57
2022-08-11T08:26:04.539Z,7.75
2022-08-11T08:28:35.055Z,7.13
2022-08-11T08:31:03.357Z,9.30
2022-08-11T08:33:33.255Z,5.95
2022-08-11T08:36:16.903Z,9.50
2022-08-11T08:38:50.311Z,6.03
2022-08-11T08:41:21.748Z,5.13
2022-08-11T08:44:02.449Z,11.82
2022-08-11T08:46:49.371Z,14.02
2022-08-11T08:49:21.062Z,6.35
2022-08-11T08:52:02.439Z,18.05
2022-08-11T08:54:46.021Z,5.93
2022-08-11T08:57:14.729Z,5.80
2022-08-11T08:59:51.417Z,11.70
2022-08-11T09:02:34.669Z,7.50
2022-08-11T09:05:05.427Z,5.38
2022-08-11T09:07:39.759Z,4.50
2022-08-11T09:10:11.388Z,4.25
2022-08-11T09:12:44.892Z,6.75
2022-08-11T09:15:19.795Z,4.38
2022-08-11T09:17:51.568Z,3.10
2022-08-11T09:20:24.018Z,3.40
2022-08-11T09:24:07.871Z,3.33
2022-08-11T09:26:20.769Z,3.25
2022-08-11T09:28:50.153Z,2.90
2022-08-11T09:31:21.932Z,3.00
2022-08-11T09:33:55.640Z,2.40
2022-08-11T09:36:42.493Z,2.50
2022-08-11T09:39:31.133Z,2.08
2022-08-11T09:42:03.460Z,2.30
2022-08-11T09:44:48.531Z,2.10
2022-08-11T09:47:24.943Z,2.25
2022-08-11T09:50:00.430Z,2.13
2022-08-11T09:52:31.538Z,1.95
2022-08-11T09:55:01.290Z,1.90
2022-08-11T09:57:46.900Z,2.30
2022-08-11T10:00:16.931Z,2.17
2022-08-11T10:02:50.419Z,2.40
2022-08-11T10:05:38.309Z,2.22
2022-08-11T10:08:08.844Z,2.50
2022-08-11T10:10:40.262Z,1.98
2022-08-11T10:14:30.206Z,2.22
2022-08-11T10:16:16.193Z,1.92
2022-08-11T10:18:52.610Z,2.63
2022-08-11T10:21:29.348Z,2.50
2022-08-11T10:24:19.206Z,2.42
2022-08-11T10:27:00.298Z,2.10
2022-08-11T10:29:51.210Z,1.85
2022-08-11T10:32:57.797Z,2.20
2022-08-11T10:35:29.803Z,2.10
2022-08-11T10:38:08.252Z,2.30
2022-08-11T10:41:08.666Z,2.60
2022-08-11T10:44:01.762Z,2.50
2022-08-11T10:46:46.815Z,2.45
2022-08-11T10:49:15.523Z,2.22
2022-08-11T10:52:02.938Z,2.03
2022-08-11T10:54:49.568Z,2.17
2022-08-11T10:57:37.558Z,2.30
2022-08-11T11:00:07.998Z,1.70
2022-08-11T11:02:36.963Z,2.10
2022-08-11T11:05:14.302Z,1.77
2022-08-11T11:08:23.823Z,2.20
2022-08-11T11:10:52.337Z,1.90
2022-08-11T11:13:40.316Z,1.80
2022-08-11T11:16:39.325Z,1.60
2022-08-11T11:19:11.238Z,1.90
2022-08-11T11:21:43.123Z,1.95
2022-08-11T11:24:27.241Z,1.90
2022-08-11T11:27:02.152Z,1.77
2022-08-11T11:29:56.138Z,2.00
2022-08-11T11:32:49.845Z,2.15
2022-08-11T11:35:37.973Z,2.17
2022-08-11T11:38:13.754Z,1.80
2022-08-11T11:40:44.330Z,3.20
2022-08-11T11:43:15.180Z,2.08
2022-08-11T11:45:44.069Z,2.03
2022-08-11T11:48:13.476Z,2.47
2022-08-11T11:50:42.414Z,1.85
2022-08-11T11:53:11.833Z,1.95
2022-08-11T11:55:40.360Z,1.77
2022-08-11T11:58:28.319Z,1.63
2022-08-11T12:01:15.446Z,1.65
2022-08-11T12:03:47.118Z,1.70
2022-08-11T12:06:16.322Z,1.63
2022-08-11T12:08:46.086Z,1.85
2022-08-11T12:11:32.638Z,1.58
2022-08-11T12:14:10.668Z,1.50
2022-08-11T12:16:44.401Z,1.50
2022-08-11T12:19:15.684Z,1.20
2022-08-11T12:22:00.514Z,1.60
2022-08-11T12:24:47.170Z,1.63
2022-08-11T12:27:25.420Z,1.80
2022-08-11T12:29:58.662Z,1.63
2022-08-11T12:32:31.100Z,1.50
2022-08-11T12:35:00.221Z,1.75
2022-08-11T12:37:34.042Z,1.50
2022-08-11T12:40:49.487Z,1.58
2022-08-11T12:43:37.918Z,1.65
2022-08-11T12:46:10.655Z,1.52
2022-08-11T12:49:03.663Z,1.65
2022-08-11T12:52:10.933Z,1.65
2022-08-11T12:54:52.852Z,1.67
2022-08-11T12:57:47.484Z,1.95
2022-08-11T13:00:35.008Z,1.40
2022-08-11T13:03:25.126Z,1.50
2022-08-11T13:05:56.938Z,1.23
2022-08-11T13:08:29.282Z,1.63
2022-08-11T13:11:17.508Z,1.70
2022-08-11T13:13:55.878Z,1.90
2022-08-11T13:16:29.606Z,1.70
2022-08-11T13:19:01.798Z,1.30
2022-08-11T13:21:30.766Z,1.30
2022-08-11T13:24:02.750Z,1.30
2022-08-11T13:26:47.225Z,1.17
2022-08-11T13:29:26.037Z,1.25
2022-08-11T13:31:59.692Z,1.08
2022-08-11T13:34:32.390Z,1.17
2022-08-11T13:37:04.389Z,1.30
2022-08-11T13:39:35.901Z,1.48
2022-08-11T13:42:06.060Z,1.58
2022-08-11T13:44:38.823Z,1.23
2022-08-11T13:47:09.333Z,1.23
2022-08-11T13:49:41.539Z,1.20
2022-08-11T13:52:13.994Z,1.40
2022-08-11T13:54:43.787Z,1.40
2022-08-11T13:58:07.564Z,1.10
2022-08-11T14:00:23.479Z,1.23
2022-08-11T14:02:58.501Z,1.25
2022-08-11T14:05:34.051Z,1.15
2022-08-11T14:08:06.111Z,1.30
2022-08-11T14:10:37.596Z,1.08
2022-08-11T14:13:28.887Z,1.20
2022-08-11T14:16:18.495Z,1.25
2022-08-11T14:18:48.874Z,1.20
2022-08-11T14:21:37.194Z,1.50
2022-08-11T14:24:06.246Z,1.20
2022-08-11T14:26:38.919Z,1.60
2022-08-11T14:29:10.784Z,1.48
2022-08-11T14:31:42.098Z,1.42
2022-08-11T14:34:12.620Z,1.50
2022-08-11T14:36:46.580Z,1.27
2022-08-11T14:39:21.038Z,1.40
2022-08-11T14:42:12.131Z,1.50
2022-08-11T14:45:16.669Z,1.20
2022-08-11T14:47:48.875Z,1.23
2022-08-11T14:50:23.971Z,1.50
2022-08-11T14:52:57.368Z,1.35
2022-08-11T14:55:47.137Z,1.30
2022-08-11T14:58:19.357Z,1.25
2022-08-11T15:00:48.623Z,1.40
2022-08-11T15:03:16.451Z,1.40
2022-08-11T15:05:56.107Z,1.30
2022-08-11T15:08:49.073Z,1.30
2022-08-11T15:11:36.877Z,1.10
2022-08-11T15:14:09.052Z,1.30
2022-08-11T15:16:57.423Z,1.20
2022-08-11T15:19:40.381Z,1.10
2022-08-11T15:22:28.184Z,1.10
2022-08-11T15:25:00.016Z,1.13
2022-08-11T15:27:49.378Z,1.10
2022-08-11T15:30:35.262Z,1.73
2022-08-11T15:33:28.455Z,1.30
2022-08-11T15:36:16.119Z,1.27
2022-08-11T15:38:54.906Z,1.23
2022-08-11T15:41:58.196Z,1.13
2022-08-11T15:45:06.242Z,1.20
2022-08-11T15:47:45.968Z,1.15
2022-08-11T15:50:23.248Z,1.40
2022-08-11T15:52:58.101Z,1.10
2022-08-11T15:55:27.066Z,1.40
2022-08-11T15:58:15.599Z,1.17
2022-08-11T16:01:08.851Z,1.20
2022-08-11T16:04:07.735Z,1.20
2022-08-11T16:06:54.235Z,1.17
2022-08-11T16:09:30.386Z,1.20
2022-08-11T16:12:16.003Z,1.30
2022-08-11T16:15:07.182Z,1.20
2022-08-11T16:17:50.411Z,1.25
2022-08-11T16:20:23.655Z,1.20
2022-08-11T16:23:01.420Z,1.48
2022-08-11T16:27:03.581Z,1.20
2022-08-11T16:28:26.175Z,1.20
2022-08-11T16:30:57.856Z,1.10
2022-08-11T16:33:50.189Z,1.35
2022-08-11T16:36:34.082Z,1.30
2022-08-11T16:39:04.898Z,1.50
2022-08-11T16:41:58.726Z,1.45
2022-08-11T16:44:47.321Z,1.30
2022-08-11T16:47:38.894Z,1.40
2022-08-11T16:50:10.633Z,1.20
2022-08-11T16:52:42.504Z,1.38
2022-08-11T16:55:11.091Z,1.73
2022-08-11T16:57:59.435Z,1.50
2022-08-11T17:00:29.570Z,1.70
2022-08-11T17:03:20.167Z,1.70
2022-08-11T17:06:11.812Z,1.45
2022-08-11T17:09:05.208Z,1.48
2022-08-11T17:11:59.438Z,1.35
2022-08-11T17:14:36.701Z,1.50
2022-08-11T17:17:08.891Z,1.30
2022-08-11T17:20:39.956Z,1.42
2022-08-11T17:22:48.975Z,1.58
2022-08-11T17:25:18.454Z,1.20
2022-08-11T17:27:48.535Z,1.50
2022-08-11T17:30:17.435Z,1.40
2022-08-11T17:33:09.314Z,1.30
2022-08-11T17:35:44.486Z,1.38
2022-08-11T17:38:16.058Z,1.60
2022-08-11T17:41:04.632Z,1.40
2022-08-11T17:43:51.403Z,1.48
2022-08-11T17:46:38.324Z,1.40
2022-08-11T17:49:09.358Z,1.42
2022-08-11T17:51:58.459Z,1.80
2022-08-11T17:54:44.760Z,1.60
2022-08-11T17:57:32.603Z,1.63
2022-08-11T18:00:01.976Z,1.55
2022-08-11T18:02:51.082Z,1.70
2022-08-11T18:05:21.903Z,1.40
2022-08-11T18:08:12.649Z,1.70
2022-08-11T18:11:00.162Z,1.73
2022-08-11T18:13:49.121Z,1.65
2022-08-11T18:16:35.303Z,1.73
2022-08-11T18:19:21.192Z,1.60
2022-08-11T18:22:15.410Z,1.70
2022-08-11T18:25:09.133Z,1.80
2022-08-11T18:27:59.833Z,1.58
2022-08-11T18:30:47.072Z,1.98
2022-08-11T18:34:03.429Z,1.40
2022-08-11T18:36:43.112Z,1.90
2022-08-11T18:39:32.442Z,1.90
2022-08-11T18:42:29.567Z,2.00
2022-08-11T18:45:22.258Z,1.70
2022-08-11T18:48:11.476Z,1.98
2022-08-11T18:51:29.793Z,2.08
2022-08-11T18:54:12.160Z,2.00
2022-08-11T18:56:58.878Z,2.10
2022-08-11T18:59:51.256Z,1.92
2022-08-11T19:02:48.557Z,2.30
2022-08-11T19:06:05.977Z,2.13
2022-08-11T19:08:49.398Z,2.00
2022-08-11T19:11:36.500Z,2.28
2022-08-11T19:14:30.737Z,1.90
2022-08-11T19:17:44.981Z,2.22
2022-08-11T19:20:30.190Z,2.10
2022-08-11T19:23:17.301Z,2.17
2022-08-11T19:26:04.346Z,1.98
2022-08-11T19:28:52.914Z,2.30
2022-08-11T19:31:44.380Z,2.80
2022-08-11T19:34:34.619Z,2.70
2022-08-11T19:37:24.931Z,2.90
2022-08-11T19:40:14.243Z,2.33
2022-08-11T19:43:02.188Z,2.55
2022-08-11T19:45:52.335Z,2.47
2022-08-11T19:48:41.072Z,2.40
2022-08-11T19:51:29.490Z,2.40
2022-08-11T19:54:16.582Z,2.53
2022-08-11T19:57:04.101Z,2.60
2022-08-11T19:59:51.549Z,2.45
2022-08-11T20:02:38.712Z,2.67
2022-08-11T20:05:26.782Z,3.35
2022-08-11T20:08:16.365Z,3.80
2022-08-11T20:11:06.360Z,2.63
2022-08-11T20:13:54.143Z,3.30
2022-08-11T20:16:42.738Z,2.80
2022-08-11T20:19:55.370Z,2.67
2022-08-11T20:22:35.845Z,2.67
2022-08-11T20:25:25.518Z,2.58
2022-08-11T20:28:12.673Z,2.72
2022-08-11T20:31:00.234Z,3.97
2022-08-11T20:33:45.988Z,3.67
2022-08-11T20:36:34.079Z,3.85
2022-08-11T20:39:21.169Z,3.50
2022-08-11T20:42:11.085Z,4.05
2022-08-11T20:44:59.807Z,4.18
2022-08-11T20:50:55.307Z,4.75
2022-08-11T20:53:44.528Z,4.13
2022-08-11T20:56:30.991Z,4.50
2022-08-11T20:59:22.006Z,3.85
2022-08-11T21:02:10.515Z,3.75
2022-08-11T21:05:00.259Z,3.90
2022-08-11T21:07:57.064Z,4.00
2022-08-11T21:10:50.631Z,5.00
2022-08-11T21:13:39.445Z,4.10
2022-08-11T21:16:28.838Z,4.00
2022-08-11T21:19:55.103Z,4.05
2022-08-11T21:22:36.259Z,5.05
2022-08-11T21:25:24.556Z,4.43
2022-08-11T21:28:11.732Z,4.60
2022-08-11T21:30:58.204Z,4.15
2022-08-11T21:33:48.090Z,3.80
2022-08-11T21:36:35.348Z,4.00
2022-08-11T21:39:25.202Z,4.18
2022-08-11T21:42:12.777Z,4.03
2022-08-11T21:45:01.035Z,4.38
2022-08-11T21:47:48.529Z,4.25
2022-08-11T21:50:35.430Z,4.60
2022-08-11T21:53:22.386Z,4.18
2022-08-11T21:56:10.434Z,4.30
2022-08-11T21:58:57.849Z,4.55
2022-08-11T22:01:52.868Z,4.35
2022-08-11T22:04:40.066Z,4.57
2022-08-11T22:07:27.517Z,4.53
2022-08-11T22:10:27.356Z,4.45
2022-08-11T22:13:19.419Z,4.27
2022-08-11T22:16:05.289Z,4.23
2022-08-11T22:18:54.459Z,4.70
2022-08-11T22:22:01.604Z,4.60
2022-08-11T22:24:50.832Z,4.30
2022-08-11T22:27:36.682Z,4.70
2022-08-11T22:30:24.465Z,4.50
2022-08-11T22:33:11.437Z,4.37
2022-08-11T22:35:59.344Z,4.70
2022-08-11T22:38:46.150Z,4.43
2022-08-11T22:41:33.338Z,5.00
2022-08-11T22:44:19.083Z,4.20
2022-08-11T22:47:04.898Z,4.13
2022-08-11T22:49:57.429Z,4.40
2022-08-11T22:52:45.411Z,4.40
2022-08-11T22:55:32.372Z,4.30
2022-08-11T22:58:21.158Z,4.10
2022-08-11T23:01:07.704Z,4.10
2022-08-11T23:03:55.149Z,3.90
2022-08-11T23:06:41.886Z,4.00
2022-08-11T23:09:28.602Z,3.47
2022-08-11T23:12:14.528Z,4.67
2022-08-11T23:15:02.839Z,4.07
2022-08-11T23:17:49.329Z,3.97
2022-08-11T23:20:44.956Z,3.87
2022-08-11T23:23:36.367Z,4.07
2022-08-11T23:26:22.494Z,4.03
2022-08-11T23:29:08.320Z,4.30
2022-08-11T23:31:57.169Z,3.93
2022-08-11T23:35:04.252Z,3.97
2022-08-11T23:37:51.002Z,4.30
2022-08-11T23:40:36.644Z,3.97
2022-08-11T23:43:23.158Z,4.20
2022-08-11T23:46:08.717Z,3.97
2022-08-11T23:48:56.798Z,4.13
2022-08-11T23:51:44.081Z,4.33
2022-08-11T23:54:36.434Z,4.10
2022-08-11T23:57:23.480Z,4.30
